createdAt,value
2023-01-29T00:00:11.890Z,7.63
2023-01-29T00:02:39.134Z,7.35
2023-01-29T00:05:25.923Z,9.57
2023-01-29T00:08:02.507Z,7.68
2023-01-29T00:10:30.363Z,7.38
2023-01-29T00:12:57.616Z,7.97
2023-01-29T00:15:25.221Z,6.68
2023-01-29T00:17:52.821Z,7.95
2023-01-29T00:20:26.274Z,10.13
2023-01-29T00:22:54.003Z,15.98
2023-01-29T00:25:21.232Z,6.78
2023-01-29T00:27:50.546Z,7.05
2023-01-29T00:30:21.483Z,6.20
2023-01-29T00:32:49.138Z,7.45
2023-01-29T00:35:16.371Z,6.53
2023-01-29T00:37:46.117Z,8.23
2023-01-29T00:40:13.993Z,9.23
2023-01-29T00:43:00.021Z,9.55
2023-01-29T00:45:27.136Z,5.07
2023-01-29T00:47:57.038Z,7.70
2023-01-29T00:50:24.291Z,7.35
2023-01-29T00:52:52.971Z,9.43
2023-01-29T00:55:20.789Z,9.05
2023-01-29T00:57:48.110Z,9.85
2023-01-29T01:00:20.034Z,10.40
2023-01-29T01:03:08.679Z,8.07
2023-01-29T01:05:37.198Z,9.20
2023-01-29T01:08:24.879Z,11.32
2023-01-29T01:11:03.497Z,10.20
2023-01-29T01:13:33.525Z,12.88
2023-01-29T01:16:00.983Z,15.07
2023-01-29T01:18:31.863Z,8.02
2023-01-29T01:21:10.305Z,10.27
2023-01-29T01:23:38.530Z,8.55
2023-01-29T01:26:10.012Z,8.40
2023-01-29T01:28:39.719Z,8.50
2023-01-29T01:31:14.603Z,10.07
2023-01-29T01:33:42.485Z,9.32
2023-01-29T01:36:09.949Z,9.98
2023-01-29T01:38:46.689Z,10.02
2023-01-29T01:41:20.412Z,8.25
2023-01-29T01:44:02.650Z,10.48
2023-01-29T01:46:35.504Z,7.55
2023-01-29T01:49:16.377Z,10.00
2023-01-29T01:51:52.425Z,9.45
2023-01-29T01:54:27.358Z,7.45
2023-01-29T01:57:09.183Z,6.88
2023-01-29T01:59:41.846Z,8.77
2023-01-29T02:02:28.124Z,8.80
2023-01-29T02:05:14.243Z,10.25
2023-01-29T02:08:07.349Z,9.23
2023-01-29T02:10:53.509Z,9.95
2023-01-29T02:13:21.901Z,9.30
2023-01-29T02:15:50.761Z,9.70
2023-01-29T02:18:20.638Z,8.90
2023-01-29T02:21:02.922Z,9.32
2023-01-29T02:24:10.642Z,9.10
2023-01-29T02:26:43.578Z,11.88
2023-01-29T02:29:27.227Z,10.30
2023-01-29T02:32:33.044Z,10.23
2023-01-29T02:35:30.859Z,10.70
2023-01-29T02:38:11.019Z,8.73
2023-01-29T02:40:53.878Z,9.57
2023-01-29T02:43:27.964Z,11.88
2023-01-29T02:46:22.032Z,7.88
2023-01-29T02:48:54.532Z,8.40
2023-01-29T02:51:31.775Z,9.27
2023-01-29T02:54:13.736Z,13.05
2023-01-29T02:56:55.949Z,7.07
2023-01-29T02:59:43.595Z,8.38
2023-01-29T03:02:19.231Z,9.45
2023-01-29T03:04:55.499Z,9.45
2023-01-29T03:07:42.528Z,9.27
2023-01-29T03:10:38.516Z,7.80
2023-01-29T03:13:26.189Z,7.22
2023-01-29T03:16:01.941Z,11.88
2023-01-29T03:18:35.647Z,8.27
2023-01-29T03:21:28.584Z,8.65
2023-01-29T03:24:18.091Z,10.40
2023-01-29T03:27:04.052Z,8.60
2023-01-29T03:29:52.606Z,7.45
2023-01-29T03:32:24.169Z,9.95
2023-01-29T03:34:58.567Z,8.52
2023-01-29T03:37:55.883Z,10.05
2023-01-29T03:43:07.866Z,11.88
2023-01-29T03:45:52.372Z,14.07
2023-01-29T03:48:25.878Z,15.80
2023-01-29T03:51:33.764Z,8.68
2023-01-29T03:54:26.938Z,10.38
2023-01-29T03:57:15.670Z,10.07
2023-01-29T03:59:55.664Z,7.97
2023-01-29T04:02:30.255Z,11.30
2023-01-29T04:05:02.190Z,9.70
2023-01-29T04:07:33.679Z,10.40
2023-01-29T04:10:08.534Z,9.13
2023-01-29T04:13:01.392Z,11.02
2023-01-29T04:15:35.654Z,11.38
2023-01-29T04:18:12.677Z,12.20
2023-01-29T04:20:40.719Z,11.68
2023-01-29T04:23:18.899Z,10.55
2023-01-29T04:25:53.488Z,9.90
2023-01-29T04:28:35.179Z,10.15
2023-01-29T04:31:08.621Z,10.07
2023-01-29T04:33:49.479Z,11.07
2023-01-29T04:36:53.529Z,7.85
2023-01-29T04:39:40.769Z,13.55
2023-01-29T04:42:34.366Z,14.35
2023-01-29T04:45:10.214Z,18.52
2023-01-29T04:47:41.990Z,20.98
2023-01-29T04:50:32.005Z,14.52
2023-01-29T04:52:59.187Z,12.65
2023-01-29T04:55:40.534Z,10.75
2023-01-29T04:58:21.174Z,12.85
2023-01-29T05:00:54.041Z,12.48
2023-01-29T05:03:25.259Z,11.57
2023-01-29T05:05:54.292Z,8.57
2023-01-29T05:08:24.309Z,11.38
2023-01-29T05:10:55.080Z,14.65
2023-01-29T05:13:25.298Z,13.05
2023-01-29T05:15:57.970Z,19.13
2023-01-29T05:18:31.577Z,13.68
2023-01-29T05:21:04.297Z,10.35
2023-01-29T05:23:32.044Z,9.52
2023-01-29T05:26:00.176Z,11.93
2023-01-29T05:28:27.866Z,12.55
2023-01-29T05:30:58.216Z,12.07
2023-01-29T05:33:30.886Z,11.38
2023-01-29T05:36:01.757Z,15.55
2023-01-29T05:38:28.970Z,10.27
2023-01-29T05:40:59.602Z,14.10
2023-01-29T05:43:27.914Z,10.13
2023-01-29T05:46:03.569Z,9.57
2023-01-29T05:48:33.403Z,12.27
2023-01-29T05:51:04.834Z,9.35
2023-01-29T05:53:33.353Z,9.60
2023-01-29T05:56:05.497Z,10.25
2023-01-29T05:58:33.846Z,11.20
2023-01-29T06:01:15.336Z,9.00
2023-01-29T06:03:42.705Z,8.93
2023-01-29T06:06:15.347Z,11.07
2023-01-29T06:08:52.281Z,9.02
2023-01-29T06:11:19.516Z,10.93
2023-01-29T06:13:48.415Z,11.52
2023-01-29T06:16:17.455Z,17.70
2023-01-29T06:18:48.330Z,13.95
2023-01-29T06:21:20.807Z,13.68
2023-01-29T06:23:48.359Z,14.93
2023-01-29T06:26:19.132Z,12.52
2023-01-29T06:28:53.946Z,13.07
2023-01-29T06:31:37.278Z,8.57
2023-01-29T06:34:06.164Z,13.93
2023-01-29T06:36:35.592Z,13.23
2023-01-29T06:39:04.149Z,11.52
2023-01-29T06:41:31.402Z,11.38
2023-01-29T06:43:58.955Z,12.38
2023-01-29T06:46:26.492Z,11.32
2023-01-29T06:48:53.861Z,9.60
2023-01-29T06:51:23.666Z,11.32
2023-01-29T06:53:51.014Z,9.07
2023-01-29T06:56:18.724Z,15.25
2023-01-29T06:58:46.691Z,9.25
2023-01-29T07:01:29.337Z,10.95
2023-01-29T07:04:02.442Z,11.43
2023-01-29T07:06:31.869Z,9.35
2023-01-29T07:09:00.571Z,15.30
2023-01-29T07:11:27.687Z,9.70
2023-01-29T07:13:55.453Z,12.52
2023-01-29T07:16:23.578Z,10.05
2023-01-29T07:18:51.447Z,11.05
2023-01-29T07:21:18.628Z,15.65
2023-01-29T07:23:45.706Z,15.60
2023-01-29T07:26:13.193Z,14.50
2023-01-29T07:28:41.345Z,13.75
2023-01-29T07:31:12.585Z,12.60
2023-01-29T07:33:39.787Z,13.25
2023-01-29T07:36:12.426Z,15.75
2023-01-29T07:38:40.138Z,13.68
2023-01-29T07:41:12.779Z,16.08
2023-01-29T07:43:43.114Z,16.05
2023-01-29T07:46:12.229Z,15.25
2023-01-29T07:48:39.564Z,14.95
2023-01-29T07:51:18.310Z,15.07
2023-01-29T07:53:50.202Z,14.82
2023-01-29T07:56:17.300Z,16.23
2023-01-29T07:58:44.989Z,13.55
2023-01-29T08:01:12.879Z,13.65
2023-01-29T08:03:40.092Z,14.80
2023-01-29T08:06:07.759Z,13.65
2023-01-29T08:08:35.099Z,13.27
2023-01-29T08:11:04.190Z,10.93
2023-01-29T08:13:33.002Z,13.73
2023-01-29T08:16:02.317Z,17.13
2023-01-29T08:18:31.711Z,10.38
2023-01-29T08:21:02.702Z,12.60
2023-01-29T08:23:31.076Z,11.90
2023-01-29T08:25:58.921Z,12.18
2023-01-29T08:28:26.332Z,12.48
2023-01-29T08:30:53.932Z,11.95
2023-01-29T08:33:38.056Z,20.50
2023-01-29T08:36:09.643Z,12.57
2023-01-29T08:38:39.540Z,12.70
2023-01-29T08:41:07.937Z,11.57
2023-01-29T08:43:39.734Z,10.73
2023-01-29T08:46:08.350Z,9.30
2023-01-29T08:48:36.442Z,9.15
2023-01-29T08:51:04.757Z,9.32
2023-01-29T08:53:34.645Z,10.23
2023-01-29T08:56:02.264Z,11.52
2023-01-29T08:58:29.759Z,11.52
2023-01-29T09:00:57.454Z,11.73
2023-01-29T09:03:24.682Z,13.55
2023-01-29T09:05:52.643Z,11.10
2023-01-29T09:08:20.076Z,13.73
2023-01-29T09:10:50.136Z,14.73
2023-01-29T09:13:17.706Z,13.07
2023-01-29T09:15:45.124Z,18.00
2023-01-29T09:18:12.274Z,13.13
2023-01-29T09:20:45.447Z,12.27
2023-01-29T09:23:13.704Z,11.55
2023-01-29T09:25:43.329Z,10.98
2023-01-29T09:28:31.199Z,14.18
2023-01-29T09:31:02.621Z,12.60
2023-01-29T09:33:31.216Z,9.93
2023-01-29T09:36:06.266Z,12.23
2023-01-29T09:38:33.431Z,19.70
2023-01-29T09:41:25.969Z,9.52
2023-01-29T09:44:01.120Z,11.82
2023-01-29T09:46:44.889Z,12.63
2023-01-29T09:49:37.868Z,12.80
2023-01-29T09:52:42.646Z,12.00
2023-01-29T09:55:30.158Z,17.98
2023-01-29T09:58:21.978Z,18.15
2023-01-29T10:00:59.756Z,14.68
2023-01-29T10:03:46.560Z,18.95
2023-01-29T10:06:42.870Z,11.98
2023-01-29T10:09:37.255Z,13.70
2023-01-29T10:12:23.440Z,14.48
2023-01-29T10:15:21.931Z,16.02
2023-01-29T10:18:18.877Z,17.13
2023-01-29T10:21:04.975Z,27.45
2023-01-29T10:23:35.014Z,41.85
2023-01-29T10:26:02.298Z,22.25
2023-01-29T10:28:46.683Z,14.75
2023-01-29T10:33:49.065Z,13.82
2023-01-29T10:36:38.979Z,12.10
2023-01-29T10:39:06.224Z,16.52
2023-01-29T10:41:53.113Z,12.93
2023-01-29T10:44:29.648Z,14.60
2023-01-29T10:47:38.574Z,14.25
2023-01-29T10:50:37.153Z,13.75
2023-01-29T10:53:22.654Z,13.48
2023-01-29T10:56:22.345Z,12.77
2023-01-29T10:59:00.097Z,21.58
2023-01-29T11:01:27.565Z,23.52
2023-01-29T11:04:01.317Z,19.48
2023-01-29T11:06:34.937Z,20.20
2023-01-29T11:09:36.135Z,13.15
2023-01-29T11:12:20.910Z,19.27
2023-01-29T11:14:54.569Z,17.55
2023-01-29T11:17:24.749Z,16.98
2023-01-29T11:19:55.930Z,17.45
2023-01-29T11:22:34.537Z,15.63
2023-01-29T11:25:24.088Z,14.38
2023-01-29T11:28:03.154Z,15.48
2023-01-29T11:30:41.983Z,12.05
2023-01-29T11:33:28.792Z,10.60
2023-01-29T11:35:59.927Z,13.00
2023-01-29T11:38:33.667Z,14.80
2023-01-29T11:41:14.796Z,11.98
2023-01-29T11:43:42.763Z,12.07
2023-01-29T11:46:15.608Z,11.85
2023-01-29T11:48:48.686Z,15.45
2023-01-29T11:51:30.170Z,12.65
2023-01-29T11:54:02.460Z,13.30
2023-01-29T11:56:41.346Z,15.88
2023-01-29T11:59:37.519Z,20.25
2023-01-29T12:02:23.568Z,15.25
2023-01-29T12:04:51.372Z,10.50
2023-01-29T12:07:22.377Z,12.52
2023-01-29T12:09:55.224Z,12.13
2023-01-29T12:12:42.209Z,9.02
2023-01-29T12:15:17.994Z,11.13
2023-01-29T12:18:04.018Z,11.50
2023-01-29T12:20:45.920Z,13.40
2023-01-29T12:23:32.696Z,11.25
2023-01-29T12:26:09.619Z,12.20
2023-01-29T12:29:03.294Z,13.30
2023-01-29T12:31:49.944Z,13.15
2023-01-29T12:34:20.325Z,20.08
2023-01-29T12:37:19.942Z,13.30
2023-01-29T12:39:48.172Z,9.40
2023-01-29T12:42:25.852Z,21.25
2023-01-29T12:45:01.219Z,14.52
2023-01-29T12:47:37.653Z,12.73
2023-01-29T12:50:29.775Z,9.07
2023-01-29T12:53:00.855Z,13.77
2023-01-29T12:55:45.973Z,14.60
2023-01-29T12:58:28.773Z,15.65
2023-01-29T13:01:04.109Z,17.38
2023-01-29T13:06:21.478Z,11.20
2023-01-29T13:09:03.529Z,13.93
2023-01-29T13:11:35.009Z,61.45
2023-01-29T13:14:16.941Z,21.23
2023-01-29T13:16:47.805Z,11.00
2023-01-29T13:19:21.850Z,15.00
2023-01-29T13:21:51.345Z,12.40
2023-01-29T13:24:23.513Z,11.52
2023-01-29T13:26:52.617Z,11.70
2023-01-29T13:29:32.184Z,11.48
2023-01-29T13:32:02.786Z,13.20
2023-01-29T13:34:44.416Z,16.90
2023-01-29T13:37:18.702Z,14.70
2023-01-29T13:39:54.464Z,13.60
2023-01-29T13:42:28.251Z,17.88
2023-01-29T13:44:58.251Z,18.30
2023-01-29T13:47:27.372Z,13.48
2023-01-29T13:50:02.894Z,13.48
2023-01-29T13:52:32.244Z,12.57
2023-01-29T13:55:20.898Z,12.60
2023-01-29T13:57:56.423Z,10.80
2023-01-29T14:00:31.063Z,12.15
2023-01-29T14:03:04.873Z,15.35
2023-01-29T14:05:32.821Z,13.88
2023-01-29T14:08:09.094Z,14.95
2023-01-29T14:10:40.020Z,15.07
2023-01-29T14:13:19.398Z,16.20
2023-01-29T14:16:15.119Z,17.15
2023-01-29T14:19:17.835Z,14.50
2023-01-29T14:21:51.635Z,17.60
2023-01-29T14:24:22.728Z,15.98
2023-01-29T14:26:55.719Z,23.70
2023-01-29T14:29:34.750Z,24.58
2023-01-29T14:32:09.720Z,26.88
2023-01-29T14:34:50.389Z,25.30
2023-01-29T14:37:19.302Z,16.05
2023-01-29T14:39:55.228Z,14.95
2023-01-29T14:42:56.555Z,13.85
2023-01-29T14:45:46.318Z,11.93
2023-01-29T14:48:39.673Z,15.15
2023-01-29T14:51:13.436Z,13.18
2023-01-29T14:54:04.264Z,15.40
2023-01-29T14:59:44.268Z,11.80
2023-01-29T15:02:38.138Z,15.82
2023-01-29T15:05:12.653Z,15.75
2023-01-29T15:08:04.323Z,10.52
2023-01-29T15:11:12.979Z,13.75
2023-01-29T15:14:15.430Z,11.57
2023-01-29T15:17:03.264Z,9.20
2023-01-29T15:19:37.138Z,17.73
2023-01-29T15:22:18.370Z,15.60
2023-01-29T15:25:04.984Z,13.70
2023-01-29T15:27:33.048Z,13.82
2023-01-29T15:30:08.318Z,9.00
2023-01-29T15:32:43.408Z,10.70
2023-01-29T15:35:38.853Z,10.13
2023-01-29T15:38:16.004Z,14.50
2023-01-29T15:41:02.152Z,15.57
2023-01-29T15:43:37.355Z,11.55
2023-01-29T15:46:11.498Z,7.28
2023-01-29T15:48:41.849Z,11.95
2023-01-29T15:51:12.085Z,10.52
2023-01-29T15:53:47.194Z,12.52
2023-01-29T15:56:19.806Z,16.60
2023-01-29T15:58:49.606Z,8.70
2023-01-29T16:01:17.468Z,7.93
2023-01-29T16:03:48.153Z,15.25
2023-01-29T16:06:15.733Z,12.45
2023-01-29T16:08:47.208Z,11.93
2023-01-29T16:11:16.522Z,10.27
2023-01-29T16:13:44.908Z,24.88
2023-01-29T16:16:15.004Z,12.43
2023-01-29T16:18:59.557Z,12.15
2023-01-29T16:21:38.299Z,11.38
2023-01-29T16:24:14.719Z,11.32
2023-01-29T16:26:47.774Z,11.57
2023-01-29T16:29:30.058Z,16.48
2023-01-29T16:32:04.485Z,15.23
2023-01-29T16:34:44.416Z,10.68
2023-01-29T16:37:32.577Z,9.43
2023-01-29T16:40:26.263Z,10.60
2023-01-29T16:43:42.008Z,13.35
2023-01-29T16:46:42.874Z,9.38
2023-01-29T16:49:39.114Z,11.35
2023-01-29T16:52:30.245Z,12.55
2023-01-29T16:55:32.268Z,11.80
2023-01-29T16:58:05.064Z,9.65
2023-01-29T17:00:32.285Z,11.30
2023-01-29T17:03:08.158Z,11.32
2023-01-29T17:05:38.012Z,11.88
2023-01-29T17:08:07.106Z,9.70
2023-01-29T17:10:34.928Z,13.48
2023-01-29T17:13:11.190Z,12.95
2023-01-29T17:15:48.076Z,10.07
2023-01-29T17:18:25.393Z,12.70
2023-01-29T17:20:53.147Z,13.65
2023-01-29T17:23:20.556Z,10.20
2023-01-29T17:25:52.047Z,10.55
2023-01-29T17:28:19.706Z,11.75
2023-01-29T17:31:05.001Z,10.40
2023-01-29T17:33:32.887Z,14.45
2023-01-29T17:36:03.480Z,13.57
2023-01-29T17:38:30.874Z,11.40
2023-01-29T17:41:24.015Z,9.90
2023-01-29T17:43:51.846Z,7.82
2023-01-29T17:46:20.466Z,11.52
2023-01-29T17:48:49.443Z,8.30
2023-01-29T17:51:18.092Z,10.85
2023-01-29T17:53:47.843Z,9.07
2023-01-29T17:56:23.650Z,11.90
2023-01-29T17:58:51.141Z,7.15
2023-01-29T18:01:18.292Z,9.60
2023-01-29T18:03:46.966Z,9.35
2023-01-29T18:06:29.503Z,9.20
2023-01-29T18:09:00.065Z,9.70
2023-01-29T18:11:28.228Z,13.35
2023-01-29T18:13:57.213Z,8.38
2023-01-29T18:16:25.708Z,10.82
2023-01-29T18:18:53.291Z,6.53
2023-01-29T18:21:23.262Z,9.38
2023-01-29T18:23:52.889Z,6.75
2023-01-29T18:26:20.128Z,7.63
2023-01-29T18:28:47.145Z,7.45
2023-01-29T18:31:14.598Z,11.57
2023-01-29T18:33:42.148Z,9.13
2023-01-29T18:36:09.814Z,11.18
2023-01-29T18:38:37.075Z,10.40
2023-01-29T18:41:06.823Z,7.93
2023-01-29T18:43:46.651Z,11.13
2023-01-29T18:46:14.163Z,5.00
2023-01-29T18:48:42.778Z,7.03
2023-01-29T18:51:10.100Z,10.52
2023-01-29T18:53:40.349Z,8.45
2023-01-29T18:56:11.234Z,10.35
2023-01-29T18:58:38.821Z,9.57
2023-01-29T19:01:10.097Z,11.63
2023-01-29T19:03:39.630Z,6.75
2023-01-29T19:06:08.518Z,9.57
2023-01-29T19:08:38.309Z,10.52
2023-01-29T19:11:09.326Z,12.80
2023-01-29T19:13:38.682Z,8.88
2023-01-29T19:16:10.589Z,11.65
2023-01-29T19:18:38.949Z,8.77
2023-01-29T19:21:12.255Z,7.03
2023-01-29T19:23:40.554Z,7.45
2023-01-29T19:26:15.706Z,7.95
2023-01-29T19:28:43.066Z,8.48
2023-01-29T19:31:11.106Z,7.93
2023-01-29T19:33:39.219Z,8.45
2023-01-29T19:36:12.290Z,5.55
2023-01-29T19:38:40.080Z,6.72
2023-01-29T19:41:13.084Z,6.82
2023-01-29T19:43:43.199Z,5.97
2023-01-29T19:46:11.080Z,8.98
2023-01-29T19:48:38.443Z,8.02
2023-01-29T19:51:09.225Z,7.68
2023-01-29T19:53:38.362Z,7.32
2023-01-29T19:56:08.470Z,12.73
2023-01-29T19:58:36.947Z,12.38
2023-01-29T20:01:08.041Z,8.85
2023-01-29T20:03:35.412Z,8.93
2023-01-29T20:06:04.325Z,11.85
2023-01-29T20:08:34.773Z,13.23
2023-01-29T20:11:02.291Z,5.10
2023-01-29T20:13:31.744Z,7.07
2023-01-29T20:16:03.217Z,7.88
2023-01-29T20:18:33.201Z,6.32
2023-01-29T20:21:10.029Z,9.93
2023-01-29T20:23:45.846Z,6.28
2023-01-29T20:26:17.104Z,15.35
2023-01-29T20:28:46.953Z,14.80
2023-01-29T20:31:16.579Z,8.10
2023-01-29T20:33:44.568Z,6.15
2023-01-29T20:36:13.481Z,8.15
2023-01-29T20:39:01.045Z,6.72
2023-01-29T20:41:29.459Z,6.18
2023-01-29T20:43:59.831Z,5.35
2023-01-29T20:46:27.448Z,6.75
2023-01-29T20:48:55.851Z,6.13
2023-01-29T20:51:23.547Z,5.88
2023-01-29T20:53:52.305Z,4.47
2023-01-29T20:56:32.229Z,4.78
2023-01-29T20:59:07.707Z,5.03
2023-01-29T21:01:37.628Z,3.72
2023-01-29T21:04:05.061Z,3.15
2023-01-29T21:06:35.375Z,3.92
2023-01-29T21:09:02.490Z,3.08
2023-01-29T21:11:29.735Z,3.45
2023-01-29T21:13:57.995Z,3.08
2023-01-29T21:16:28.540Z,4.95
2023-01-29T21:18:59.229Z,4.63
2023-01-29T21:21:26.951Z,5.05
2023-01-29T21:23:58.163Z,5.60
2023-01-29T21:26:25.999Z,4.28
2023-01-29T21:28:53.641Z,3.92
2023-01-29T21:31:23.239Z,3.75
2023-01-29T21:33:53.410Z,5.57
2023-01-29T21:36:20.610Z,5.57
2023-01-29T21:38:48.281Z,4.10
2023-01-29T21:41:21.408Z,5.30
2023-01-29T21:43:51.998Z,3.33
2023-01-29T21:46:19.267Z,3.22
2023-01-29T21:48:46.808Z,4.32
2023-01-29T21:51:14.092Z,6.03
2023-01-29T21:53:41.365Z,5.93
2023-01-29T21:56:14.458Z,4.30
2023-01-29T21:58:41.786Z,9.98
2023-01-29T22:01:18.420Z,16.10
2023-01-29T22:03:57.508Z,12.70
2023-01-29T22:06:28.782Z,6.00
2023-01-29T22:08:55.901Z,6.03
2023-01-29T22:11:23.212Z,6.18
2023-01-29T22:13:56.500Z,4.55
2023-01-29T22:16:26.119Z,4.78
2023-01-29T22:18:53.740Z,6.45
2023-01-29T22:21:21.201Z,4.75
2023-01-29T22:23:49.644Z,7.72
2023-01-29T22:26:17.465Z,8.02
2023-01-29T22:28:44.773Z,6.70
2023-01-29T22:31:12.567Z,3.42
2023-01-29T22:33:39.766Z,6.68
2023-01-29T22:36:10.833Z,6.63
2023-01-29T22:38:38.417Z,4.47
2023-01-29T22:41:05.611Z,5.13
2023-01-29T22:43:32.828Z,5.22
2023-01-29T22:46:00.949Z,6.43
2023-01-29T22:48:30.784Z,5.85
2023-01-29T22:51:12.308Z,4.63
2023-01-29T22:53:43.457Z,5.25
2023-01-29T22:56:15.187Z,8.93
2023-01-29T22:58:44.746Z,4.68
2023-01-29T23:01:14.419Z,3.33
2023-01-29T23:03:41.664Z,5.25
2023-01-29T23:06:08.888Z,4.75
2023-01-29T23:08:36.276Z,6.32
2023-01-29T23:11:14.910Z,6.25
2023-01-29T23:13:46.333Z,3.90
2023-01-29T23:16:15.025Z,5.38
2023-01-29T23:18:44.456Z,4.32
2023-01-29T23:21:15.079Z,5.88
2023-01-29T23:23:44.944Z,3.72
2023-01-29T23:26:33.123Z,4.70
2023-01-29T23:29:00.822Z,4.75
2023-01-29T23:31:28.905Z,3.15
2023-01-29T23:33:56.092Z,3.75
2023-01-29T23:36:23.724Z,4.10
2023-01-29T23:38:57.069Z,4.63
2023-01-29T23:41:24.802Z,5.13
2023-01-29T23:43:52.886Z,2.60
2023-01-29T23:46:22.279Z,5.72
2023-01-29T23:48:49.555Z,4.60
2023-01-29T23:51:16.918Z,4.55
2023-01-29T23:53:44.263Z,3.97
2023-01-29T23:56:14.883Z,4.55
2023-01-29T23:58:42.874Z,2.75
